If you wish to contribute or participate in the discussions about articles you are invited to join SKYbrary as a registered user

 Actions

Bobo Dioulasso Airport

From SKYbrary Wiki

DFOO
Airport
ICAO: DFOO – IATA: BOY
Summary
Name Bobo Dioulasso Airport
Region Africa
Territory Burkina Faso BF.gif
Location Bobo Dioulasso
Serving Bobo Dioulasso
Elevation 460.553 m
1,511 ft
1,511 ft460.553 m
Coordinates 11° 9' 37.79" N, 4° 19' 47.15" W
Runways
Designator Length Width Surface ROPS
6/24 3300 m10,826.772 ft
45 m147.638 ft
ASP /


METAR
Observation DFOO 111000Z 32004KT 260V020 CAVOK 34/12 Q1012
Station Bobo-Dioulasso
Date/Time 11 April 2019 10:00:00
Wind direction 320°
Wind speed 04 kts
Lowest cloud amount clouds and visibility OK
Temperature 34°C
Dew point 12°C
Humidity 26%
QNH 1012 hPa
Weather condition n/a

Bobo Dioulasso Airport

ICAO: DFOO IATA: BOY

Description

Bobo Dioulasso Airport is an airport in Bobo Dioulasso, Burkina Faso.

Maps

Terrain

Loading map...

Airport Layout

Loading map...


Accidents & Serious Incidents at or in vicinity of DFOO

None on SKYbrary